Time;durP1;ratioP1;P1;durP2;ratioP2;P2;SDS_P1;SDS_P2;PMS_P1;PMS_P2;Temp;Humidity;BMP_temperature;BMP_pressure;BME280_temperature;BME280_humidity;BME280_pressure;Samples;Min_cycle;Max_cycle;Signal;HPM_P1;HPM_P2
2023/09/06 00:00:29;;;;;;;14.28;9.25;;;;;;;16.53;67.84;101206.45;1750631;81;21334;-55
2023/09/06 00:03:36;;;;;;;13.25;8.85;;;;;;;16.50;67.84;101199.94;1735928;81;21855;-55
2023/09/06 00:06:42;;;;;;;17.42;9.20;;;;;;;16.47;67.82;101199.81;1749914;81;21354;-55
2023/09/06 00:09:48;;;;;;;11.63;9.10;;;;;;;16.45;67.90;101199.14;1750716;81;21267;-55
2023/09/06 00:12:55;;;;;;;14.18;9.55;;;;;;;16.43;68.01;101202.58;1750697;81;21262;-56
2023/09/06 00:16:01;;;;;;;11.48;9.15;;;;;;;16.40;67.97;101203.84;1748572;81;21188;-56
2023/09/06 00:19:06;;;;;;;14.23;9.35;;;;;;;16.36;67.99;101205.26;1750729;81;21584;-55
2023/09/06 00:22:13;;;;;;;13.18;8.80;;;;;;;16.32;67.98;101198.42;1750798;81;21539;-55
2023/09/06 00:25:21;;;;;;;15.05;9.98;;;;;;;16.28;68.00;101198.45;1749877;81;21215;-54
2023/09/06 00:28:28;;;;;;;13.55;8.70;;;;;;;16.25;68.12;101198.84;1749849;81;21286;-55
2023/09/06 00:31:35;;;;;;;16.97;10.05;;;;;;;16.23;68.20;101192.68;1750502;81;21203;-56
2023/09/06 00:34:41;;;;;;;16.82;9.00;;;;;;;16.18;68.21;101194.29;1750664;81;21204;-56
2023/09/06 00:37:49;;;;;;;12.55;9.30;;;;;;;16.16;68.38;101193.10;1750090;81;21192;-55
2023/09/06 00:40:57;;;;;;;16.52;9.23;;;;;;;16.13;68.44;101199.02;1749428;81;21234;-55
2023/09/06 00:44:03;;;;;;;13.28;8.90;;;;;;;16.10;68.41;101203.55;1724580;81;21363;-54
2023/09/06 00:47:12;;;;;;;12.30;9.10;;;;;;;16.06;68.47;101203.58;1724503;82;21387;-55
2023/09/06 00:50:17;;;;;;;12.43;8.95;;;;;;;16.03;68.44;101199.82;1724195;83;21375;-55
2023/09/06 00:53:23;;;;;;;11.75;9.63;;;;;;;16.00;68.50;101205.73;1724907;82;21390;-55
2023/09/06 00:56:28;;;;;;;14.03;10.05;;;;;;;15.99;68.62;101210.06;1708818;82;21916;-55
2023/09/06 00:59:33;;;;;;;12.53;9.25;;;;;;;15.94;68.66;101206.50;1724404;82;21905;-55
2023/09/06 01:02:38;;;;;;;13.60;9.08;;;;;;;15.90;68.66;101211.22;1724138;82;21791;-54
2023/09/06 01:06:05;;;;;;;12.63;9.70;;;;;;;15.86;68.72;101205.73;1724332;82;22222;-54
2023/09/06 01:09:10;;;;;;;14.58;9.80;;;;;;;15.83;68.76;101204.22;1718508;82;21422;-54
2023/09/06 01:12:18;;;;;;;13.28;8.90;;;;;;;15.79;68.81;101205.63;1724543;82;21433;-56
2023/09/06 01:15:24;;;;;;;13.58;9.23;;;;;;;15.77;68.92;101204.98;1724069;82;21407;-55
2023/09/06 01:18:30;;;;;;;14.47;9.48;;;;;;;15.76;69.07;101201.86;1724228;82;21738;-55
2023/09/06 01:21:47;;;;;;;13.55;9.35;;;;;;;15.74;69.16;101208.12;1724421;82;21375;-55
2023/09/06 01:24:52;;;;;;;14.15;9.85;;;;;;;15.69;69.08;101202.30;1724922;82;21355;-54
2023/09/06 01:27:58;;;;;;;15.80;9.65;;;;;;;15.65;69.04;101207.85;1724498;83;21386;-55
2023/09/06 01:31:05;;;;;;;12.35;9.33;;;;;;;15.63;69.25;101201.69;1724528;82;21877;-56
2023/09/06 01:34:11;;;;;;;16.02;9.60;;;;;;;15.63;69.36;101206.34;1724932;82;21974;-55
2023/09/06 01:37:18;;;;;;;12.85;9.58;;;;;;;15.59;69.28;101203.09;1724434;82;21359;-55
2023/09/06 01:40:26;;;;;;;14.43;9.80;;;;;;;15.55;69.30;101207.28;1724286;82;21435;-55
2023/09/06 01:43:32;;;;;;;12.85;9.33;;;;;;;15.53;69.45;101202.47;1723839;82;21387;-55
2023/09/06 01:46:38;;;;;;;15.72;10.13;;;;;;;15.54;69.67;101208.31;1724161;83;21390;-56
2023/09/06 01:49:45;;;;;;;12.88;9.93;;;;;;;15.53;69.75;101202.98;1724214;83;21367;-55
2023/09/06 01:52:52;;;;;;;12.47;9.80;;;;;;;15.54;69.81;101207.48;1724132;82;21461;-54
2023/09/06 01:55:58;;;;;;;12.30;9.45;;;;;;;15.52;69.86;101209.05;1725159;82;21372;-55
2023/09/06 01:59:06;;;;;;;13.15;8.85;;;;;;;15.50;69.85;101212.51;1724595;82;21755;-55
2023/09/06 02:02:12;;;;;;;11.78;9.35;;;;;;;15.49;69.98;101208.02;1724916;82;21414;-55
2023/09/06 02:05:18;;;;;;;13.98;9.40;;;;;;;15.48;70.02;101210.45;1724338;82;21382;-55
2023/09/06 02:08:25;;;;;;;14.45;9.93;;;;;;;15.47;70.00;101205.98;1724623;82;21375;-55
2023/09/06 02:11:34;;;;;;;14.25;9.20;;;;;;;15.45;70.00;101210.83;1724365;82;21411;-54
2023/09/06 02:14:39;;;;;;;15.08;9.93;;;;;;;15.44;70.16;101211.02;1724539;82;21975;-54
2023/09/06 02:17:47;;;;;;;12.10;9.40;;;;;;;15.45;70.27;101210.83;1724140;83;21379;-55
2023/09/06 02:20:54;;;;;;;14.20;10.20;;;;;;;15.45;70.31;101209.95;1724273;82;21861;-55
2023/09/06 02:24:01;;;;;;;16.87;10.43;;;;;;;15.44;70.36;101212.39;1724225;83;21375;-54
2023/09/06 02:27:09;;;;;;;12.30;9.65;;;;;;;15.42;70.40;101207.06;1724543;82;21359;-54
2023/09/06 02:30:15;;;;;;;17.25;10.03;;;;;;;15.41;70.39;101216.41;1724656;82;21802;-54
2023/09/06 02:33:22;;;;;;;13.38;9.28;;;;;;;15.38;70.31;101214.49;1724223;83;21359;-54
2023/09/06 02:36:29;;;;;;;13.15;9.60;;;;;;;15.34;70.26;101218.14;1724867;82;21364;-55
2023/09/06 02:39:35;;;;;;;13.45;10.15;;;;;;;15.28;70.20;101213.37;1724270;82;21399;-55
2023/09/06 02:42:41;;;;;;;14.05;10.23;;;;;;;15.24;70.24;101216.16;1724110;83;21347;-55
2023/09/06 02:45:49;;;;;;;13.72;9.53;;;;;;;15.22;70.25;101222.91;1723099;81;21647;-55
2023/09/06 02:48:58;;;;;;;13.65;10.43;;;;;;;15.17;70.30;101220.72;1724145;82;21371;-55
2023/09/06 02:52:03;;;;;;;13.88;9.83;;;;;;;15.15;70.41;101225.55;1724113;83;21347;-55
2023/09/06 02:55:13;;;;;;;15.05;10.58;;;;;;;15.13;70.41;101223.48;1724185;82;21391;-55
2023/09/06 02:58:23;;;;;;;14.50;10.98;;;;;;;15.07;70.32;101222.85;1678268;82;21702;-55
2023/09/06 03:01:26;;;;;;;20.75;11.70;;;;;;;15.03;70.40;101227.03;1724977;82;21936;-55
2023/09/06 03:04:37;;;;;;;19.55;11.33;;;;;;;15.02;70.50;101234.95;1725257;82;21422;-55
2023/09/06 03:07:43;;;;;;;18.35;10.85;;;;;;;14.99;70.59;101232.56;1724485;83;21399;-56
2023/09/06 03:10:56;;;;;;;15.00;10.65;;;;;;;14.98;70.65;101239.13;1725357;82;21857;-56
2023/09/06 03:14:03;;;;;;;17.98;11.45;;;;;;;14.94;70.75;101228.98;1675813;85;21904;-58
2023/09/06 03:17:10;;;;;;;16.57;11.55;;;;;;;14.94;70.85;101228.98;1724507;82;21398;-58
2023/09/06 03:20:31;;;;;;;15.10;11.15;;;;;;;14.96;71.00;101240.70;1724627;83;21968;-58
2023/09/06 03:23:27;;;;;;;18.12;11.03;;;;;;;14.97;71.10;101237.39;1724542;83;21375;-58
2023/09/06 03:26:33;;;;;;;16.80;11.35;;;;;;;14.98;71.16;101233.08;1724672;83;21343;-58
2023/09/06 03:29:50;;;;;;;15.70;11.10;;;;;;;15.00;71.23;101248.92;1724742;83;21874;-58
2023/09/06 03:32:51;;;;;;;15.55;10.78;;;;;;;15.00;71.28;101248.05;1724601;83;21359;-58
2023/09/06 03:35:58;;;;;;;17.32;9.98;;;;;;;15.00;71.25;101248.92;1724479;83;21383;-59
2023/09/06 03:39:06;;;;;;;15.00;10.10;;;;;;;15.00;71.27;101243.92;1724678;82;21917;-58
2023/09/06 03:42:17;;;;;;;17.35;11.15;;;;;;;15.04;71.37;101246.66;1724461;82;21371;-58
2023/09/06 03:45:24;;;;;;;18.17;10.55;;;;;;;15.07;71.44;101247.67;1724458;82;21371;-59
2023/09/06 03:48:32;;;;;;;15.32;10.40;;;;;;;15.09;71.47;101246.98;1683683;85;21366;-58
2023/09/06 03:51:38;;;;;;;17.02;11.57;;;;;;;15.11;71.51;101250.39;1696800;83;21748;-59
2023/09/06 03:54:45;;;;;;;19.98;10.32;;;;;;;15.14;71.53;101251.42;1713816;83;21246;-57
2023/09/06 03:57:52;;;;;;;14.98;9.45;;;;;;;15.18;71.58;101250.52;1681581;85;21772;-58
2023/09/06 04:00:59;;;;;;;14.15;9.35;;;;;;;15.20;71.62;101249.30;1681634;85;21204;-59
2023/09/06 04:04:08;;;;;;;13.45;9.58;;;;;;;15.25;71.68;101258.40;1713445;83;21239;-58
2023/09/06 04:07:14;;;;;;;12.55;9.13;;;;;;;15.29;71.79;101259.22;1681888;84;21236;-59
2023/09/06 04:10:21;;;;;;;11.45;8.38;;;;;;;15.36;71.89;101255.20;1682709;85;21725;-59
2023/09/06 04:13:28;;;;;;;15.65;9.33;;;;;;;15.42;71.97;101264.14;1683299;85;21848;-59
2023/09/06 04:16:37;;;;;;;16.67;9.40;;;;;;;15.48;72.08;101255.98;1713804;83;21708;-58
2023/09/06 04:19:43;;;;;;;49.53;23.65;;;;;;;15.55;72.12;101261.11;1713584;83;21806;-59
2023/09/06 04:22:51;;;;;;;50.40;23.05;;;;;;;15.63;72.15;101269.31;1682399;85;21243;-59
2023/09/06 04:26:00;;;;;;;26.50;14.90;;;;;;;15.69;72.19;101264.42;1681183;85;21942;-58
2023/09/06 04:29:06;;;;;;;12.07;9.03;;;;;;;15.76;72.29;101263.98;1682012;83;22060;-59
2023/09/06 04:32:12;;;;;;;11.68;7.90;;;;;;;15.84;72.34;101263.91;1704783;84;21859;-58
2023/09/06 04:35:22;;;;;;;12.10;7.67;;;;;;;15.92;72.46;101261.05;1714209;82;21226;-57
2023/09/06 04:38:27;;;;;;;13.72;7.85;;;;;;;16.01;72.54;101264.09;1682621;85;21749;-58
2023/09/06 04:41:36;;;;;;;12.13;7.62;;;;;;;16.10;72.60;101262.94;1712988;83;21184;-58
2023/09/06 04:44:42;;;;;;;12.45;7.50;;;;;;;16.17;72.64;101252.83;1711318;83;21792;-57
2023/09/06 04:47:50;;;;;;;11.70;8.08;;;;;;;16.28;72.67;101258.41;1723943;80;21607;-58
2023/09/06 04:50:59;;;;;;;12.15;8.13;;;;;;;16.36;72.70;101266.06;1713239;83;21207;-57
2023/09/06 04:54:09;;;;;;;12.93;8.15;;;;;;;16.44;72.68;101259.08;1712771;83;21247;-57
2023/09/06 04:57:16;;;;;;;16.75;8.45;;;;;;;16.53;72.71;101258.98;1677065;83;21785;-60
2023/09/06 05:00:30;;;;;;;15.75;7.60;;;;;;;16.60;72.68;101258.03;1738316;82;21422;-58
2023/09/06 05:03:35;;;;;;;14.68;7.92;;;;;;;16.68;72.71;101255.67;1725994;82;21231;-58
2023/09/06 05:06:43;;;;;;;13.65;7.15;;;;;;;16.78;72.73;101262.60;1710458;82;21247;-59
2023/09/06 05:09:49;;;;;;;14.55;7.70;;;;;;;16.84;72.72;101252.69;1738582;81;21360;-59
2023/09/06 05:12:56;;;;;;;17.73;9.10;;;;;;;16.93;72.77;101255.65;1699197;82;21818;-56
2023/09/06 05:16:08;;;;;;;13.90;7.50;;;;;;;17.03;72.89;101261.73;1750705;81;21433;-58
2023/09/06 05:19:14;;;;;;;10.78;6.67;;;;;;;17.12;72.86;101260.54;1738938;80;21374;-58
2023/09/06 05:22:25;;;;;;;10.90;6.35;;;;;;;17.22;72.84;101259.70;1741172;82;21382;-55
2023/09/06 05:25:28;;;;;;;12.40;6.53;;;;;;;17.29;72.83;101255.94;1702908;83;21308;-56
2023/09/06 05:28:37;;;;;;;12.30;6.72;;;;;;;17.39;72.86;101262.52;1710788;83;21232;-56
2023/09/06 05:31:44;;;;;;;8.70;6.42;;;;;;;17.50;72.91;101268.42;1709979;83;21192;-55
2023/09/06 05:34:49;;;;;;;13.20;6.65;;;;;;;17.58;72.87;101268.80;1689974;84;21270;-56
2023/09/06 05:37:56;;;;;;;12.47;6.70;;;;;;;17.67;72.89;101273.13;1726271;81;21227;-56
2023/09/06 05:41:05;;;;;;;12.20;6.37;;;;;;;17.76;72.84;101271.41;1739247;82;21369;-57
2023/09/06 05:44:12;;;;;;;12.78;6.75;;;;;;;17.84;72.81;101271.77;1741386;81;21425;-56
2023/09/06 05:47:18;;;;;;;21.68;13.25;;;;;;;17.93;72.84;101266.95;1733847;82;21848;-57
2023/09/06 05:50:31;;;;;;;10.80;7.58;;;;;;;18.02;72.88;101274.04;1743681;80;21254;-59
2023/09/06 05:53:34;;;;;;;11.25;6.80;;;;;;;18.12;72.85;101275.94;1737924;82;21274;-57
2023/09/06 05:56:39;;;;;;;10.20;6.47;;;;;;;18.20;72.85;101276.64;1726169;82;21310;-58
2023/09/06 05:59:47;;;;;;;13.08;6.22;;;;;;;18.29;72.85;101282.86;1713440;83;21755;-58
2023/09/06 06:02:58;;;;;;;10.55;6.30;;;;;;;18.38;72.85;101284.42;1737292;80;21357;-58
2023/09/06 06:06:10;;;;;;;7.08;5.85;;;;;;;18.46;72.82;101283.74;1742137;82;21392;-57
2023/09/06 06:09:15;;;;;;;8.48;5.92;;;;;;;18.58;72.86;101288.19;1715422;81;21218;-59
2023/09/06 06:12:22;;;;;;;11.80;6.87;;;;;;;18.67;72.86;101284.16;1741937;82;21207;-58
2023/09/06 06:15:29;;;;;;;10.25;5.72;;;;;;;18.74;72.86;101280.35;1742116;82;21195;-59
2023/09/06 06:18:37;;;;;;;8.30;5.83;;;;;;;18.84;72.86;101284.13;1746555;80;21199;-57
2023/09/06 06:21:45;;;;;;;18.62;6.40;;;;;;;18.90;72.85;101279.99;1739060;82;22033;-57
2023/09/06 06:24:51;;;;;;;10.43;6.00;;;;;;;18.99;72.82;101289.00;1740023;82;21211;-57
2023/09/06 06:27:57;;;;;;;7.00;5.22;;;;;;;19.06;72.81;101282.39;1740506;82;21384;-57
2023/09/06 06:31:04;;;;;;;6.80;4.67;;;;;;;19.14;72.75;101284.98;1740410;82;21195;-56
2023/09/06 06:34:10;;;;;;;6.92;4.53;;;;;;;19.25;72.75;101284.89;1741076;82;21696;-57
2023/09/06 06:37:18;;;;;;;10.82;5.20;;;;;;;19.38;72.74;101288.29;1740153;82;21203;-56
2023/09/06 06:40:26;;;;;;;11.50;5.15;;;;;;;19.51;72.71;101278.04;1742213;82;21218;-57
2023/09/06 06:43:33;;;;;;;5.87;4.60;;;;;;;19.65;72.73;101279.75;1742887;82;21851;-55
2023/09/06 06:46:41;;;;;;;8.50;4.67;;;;;;;19.76;72.65;101278.25;1741133;81;21413;-57
2023/09/06 06:49:48;;;;;;;7.08;4.67;;;;;;;19.88;72.58;101279.34;1742514;82;21382;-56
2023/09/06 06:52:55;;;;;;;6.97;4.50;;;;;;;19.97;72.49;101275.26;1682959;85;21239;-58
2023/09/06 06:56:02;;;;;;;9.53;4.20;;;;;;;20.08;72.38;101277.38;1684511;84;21238;-56
2023/09/06 06:59:10;;;;;;;7.97;3.67;;;;;;;20.21;72.33;101277.41;1651714;87;21243;-56
2023/09/06 07:02:18;;;;;;;6.53;4.10;;;;;;;20.35;72.31;101279.95;1652772;86;21208;-58
2023/09/06 07:05:25;;;;;;;8.43;3.67;;;;;;;20.49;72.19;101277.44;1653801;86;21232;-55
2023/09/06 07:08:31;;;;;;;6.78;3.52;;;;;;;20.61;72.05;101279.85;1684777;82;21259;-55
2023/09/06 07:11:37;;;;;;;5.05;3.12;;;;;;;20.71;71.86;101278.00;1709596;82;21252;-55
2023/09/06 07:14:43;;;;;;;4.87;3.17;;;;;;;20.83;71.69;101284.60;1711238;83;21279;-55
2023/09/06 07:17:50;;;;;;;6.92;2.90;;;;;;;20.95;71.57;101281.98;1710641;83;21271;-56
2023/09/06 07:20:56;;;;;;;6.72;3.17;;;;;;;21.04;71.42;101267.59;1710497;83;21780;-56
2023/09/06 07:24:01;;;;;;;6.45;3.30;;;;;;;21.16;71.26;101264.97;1710290;83;21523;-53
2023/09/06 07:27:06;;;;;;;6.12;3.10;;;;;;;21.24;71.09;101262.78;1711324;82;21216;-53
2023/09/06 07:30:14;;;;;;;7.33;3.37;;;;;;;21.33;70.94;101264.21;1711236;83;21235;-53
2023/09/06 07:33:19;;;;;;;4.72;2.83;;;;;;;21.47;70.78;101269.17;1676303;85;21211;-53
2023/09/06 07:36:25;;;;;;;8.90;2.60;;;;;;;21.55;70.53;101271.13;1671765;84;21354;-54
2023/09/06 07:39:32;;;;;;;7.85;3.47;;;;;;;21.63;70.27;101263.87;1711428;83;21231;-54
2023/09/06 07:42:37;;;;;;;6.97;3.20;;;;;;;21.71;69.98;101279.47;1680089;85;21298;-53
2023/09/06 07:45:44;;;;;;;10.13;5.03;;;;;;;21.78;69.78;101276.99;1677507;85;21228;-53
2023/09/06 07:48:49;;;;;;;8.28;4.70;;;;;;;21.85;69.48;101276.38;1669281;85;21280;-53
2023/09/06 07:51:57;;;;;;;6.87;2.87;;;;;;;21.92;69.18;101273.00;1691902;81;21727;-54
2023/09/06 07:55:06;;;;;;;5.80;3.17;;;;;;;22.00;68.96;101270.45;1709475;82;21234;-55
2023/09/06 07:58:12;;;;;;;6.83;2.60;;;;;;;22.06;68.69;101266.22;1714372;82;21369;-54
2023/09/06 08:01:17;;;;;;;9.85;3.80;;;;;;;22.12;68.33;101268.08;1710364;83;21220;-54
2023/09/06 08:04:22;;;;;;;8.15;2.60;;;;;;;22.14;68.01;101265.92;1704013;82;21240;-54
2023/09/06 08:07:28;;;;;;;3.50;2.33;;;;;;;22.19;67.73;101266.09;1722118;81;21275;-53
2023/09/06 08:10:33;;;;;;;5.70;2.60;;;;;;;22.23;67.44;101263.14;1739133;82;21207;-54
2023/09/06 08:13:38;;;;;;;9.33;2.50;;;;;;;22.25;67.15;101262.08;1743311;80;21254;-54
2023/09/06 08:16:44;;;;;;;5.17;2.58;;;;;;;22.24;66.81;101262.61;1744318;81;21297;-54
2023/09/06 08:19:50;;;;;;;4.97;2.40;;;;;;;22.25;66.51;101264.87;1743082;82;21216;-54
2023/09/06 08:22:56;;;;;;;9.48;3.08;;;;;;;22.28;66.22;101258.83;1714251;83;21836;-54
2023/09/06 08:26:02;;;;;;;11.05;3.05;;;;;;;22.32;65.93;101262.84;1714730;83;21388;-53
2023/09/06 08:29:08;;;;;;;10.13;3.47;;;;;;;22.38;65.68;101267.49;1705525;82;21232;-54
2023/09/06 08:32:14;;;;;;;4.12;2.83;;;;;;;22.45;65.42;101264.09;1719240;83;21347;-55
2023/09/06 08:35:23;;;;;;;5.28;3.00;;;;;;;22.54;65.13;101262.20;1721815;82;21734;-54
2023/09/06 08:38:28;;;;;;;6.60;2.60;;;;;;;22.59;64.80;101258.70;1722906;82;21876;-54
2023/09/06 08:41:33;;;;;;;4.62;2.90;;;;;;;22.65;64.48;101259.16;1722466;83;21339;-54
2023/09/06 08:44:39;;;;;;;4.75;2.98;;;;;;;22.71;64.20;101265.20;1695283;84;21379;-53
2023/09/06 08:47:47;;;;;;;4.75;2.95;;;;;;;22.76;63.87;101263.42;1701686;82;21368;-54
2023/09/06 08:50:48;;;;;;;4.70;2.67;;;;;;;22.84;63.54;101262.25;1729847;82;21436;-52
2023/09/06 08:53:53;;;;;;;4.72;2.77;;;;;;;22.92;63.20;101263.32;1703643;82;21250;-54
2023/09/06 08:57:00;;;;;;;6.55;2.90;;;;;;;23.00;62.96;101256.02;1669777;83;21278;-56
2023/09/06 09:00:11;;;;;;;4.80;3.10;;;;;;;23.13;62.69;101250.25;1707918;82;21220;-54
2023/09/06 09:03:14;;;;;;;7.17;2.70;;;;;;;23.28;62.51;101250.69;1739111;82;21246;-59
2023/09/06 09:06:22;;;;;;;7.30;2.77;;;;;;;23.44;62.24;101251.42;1683730;84;21215;-59
2023/09/06 09:09:28;;;;;;;7.28;2.58;;;;;;;23.56;61.86;101241.97;1702462;84;21354;-60
2023/09/06 09:12:37;;;;;;;4.83;2.75;;;;;;;23.66;61.41;101237.19;1692991;83;21239;-58
2023/09/06 09:15:44;;;;;;;5.30;2.67;;;;;;;23.78;61.08;101247.86;1677595;85;21386;-59
2023/09/06 09:18:50;;;;;;;5.65;3.10;;;;;;;23.92;60.74;101243.73;1687966;83;21259;-58
2023/09/06 09:21:58;;;;;;;7.22;3.05;;;;;;;23.99;60.31;101245.88;1701668;83;21588;-58
2023/09/06 09:25:15;;;;;;;9.18;3.45;;;;;;;24.05;59.83;101232.34;1687667;84;21387;-59
2023/09/06 09:28:24;;;;;;;4.95;2.72;;;;;;;24.08;59.39;101234.66;1707578;84;21340;-59
2023/09/06 09:31:29;;;;;;;10.88;3.10;;;;;;;24.08;59.01;101233.25;1636422;85;21819;-59
2023/09/06 09:34:35;;;;;;;5.10;2.92;;;;;;;24.10;58.73;101232.44;1657306;85;21272;-60
2023/09/06 09:37:41;;;;;;;7.08;2.70;;;;;;;24.13;58.39;101225.52;1648287;85;21434;-60
2023/09/06 09:40:47;;;;;;;4.92;3.02;;;;;;;24.15;58.09;101226.14;1660256;85;21362;-59
2023/09/06 09:43:53;;;;;;;8.73;2.83;;;;;;;24.22;57.83;101222.64;1695453;83;21227;-59
2023/09/06 09:46:58;;;;;;;4.65;2.70;;;;;;;24.26;57.48;101231.70;1703904;82;21204;-59
2023/09/06 09:50:05;;;;;;;4.75;2.90;;;;;;;24.27;57.05;101225.03;1704721;83;21231;-59
2023/09/06 09:53:16;;;;;;;4.78;2.50;;;;;;;24.28;56.71;101232.86;1705457;83;21721;-59
2023/09/06 09:56:22;;;;;;;4.87;2.72;;;;;;;24.30;56.38;101232.07;1685309;85;21215;-58
2023/09/06 09:59:29;;;;;;;5.40;3.30;;;;;;;24.26;55.96;101226.67;1712903;82;21275;-58
2023/09/06 10:02:35;;;;;;;4.00;2.58;;;;;;;24.28;55.74;101235.12;1724513;82;21227;-55
2023/09/06 10:05:41;;;;;;;5.90;2.65;;;;;;;24.32;55.41;101233.55;1718243;81;21738;-56
2023/09/06 10:08:47;;;;;;;4.70;2.50;;;;;;;24.33;55.11;101239.44;1689021;82;21335;-59
2023/09/06 10:11:53;;;;;;;6.60;2.22;;;;;;;24.32;54.60;101229.34;1724747;82;21523;-59
2023/09/06 10:14:59;;;;;;;5.37;2.80;;;;;;;24.33;54.27;101232.98;1722674;82;21374;-61
2023/09/06 10:18:07;;;;;;;5.08;2.90;;;;;;;24.42;53.95;101232.36;1708309;83;21224;-59
2023/09/06 10:21:14;;;;;;;11.18;3.67;;;;;;;24.50;53.64;101228.31;1694857;84;21213;-60
2023/09/06 10:24:27;;;;;;;5.85;3.70;;;;;;;24.51;53.23;101216.05;1693360;84;21232;-57
2023/09/06 10:27:38;;;;;;;8.95;5.67;;;;;;;24.56;52.95;101225.39;1693563;84;21220;-55
2023/09/06 10:30:47;;;;;;;9.73;6.10;;;;;;;24.64;52.61;101225.00;1693606;84;21749;-58
2023/09/06 10:33:59;;;;;;;7.65;3.70;;;;;;;24.70;52.29;101215.67;1703246;82;21215;-58
2023/09/06 10:37:07;;;;;;;9.03;3.27;;;;;;;24.78;51.96;101220.02;1744916;82;21276;-58
2023/09/06 10:40:13;;;;;;;6.50;3.22;;;;;;;24.76;51.52;101208.20;1741013;82;21352;-58
2023/09/06 10:43:19;;;;;;;6.00;2.80;;;;;;;24.79;51.32;101201.56;1724104;82;21239;-56
2023/09/06 10:46:30;;;;;;;6.20;3.45;;;;;;;24.84;51.05;101197.47;1753517;81;21197;-56
2023/09/06 10:49:36;;;;;;;5.30;3.25;;;;;;;24.83;50.73;101205.55;1749034;82;21482;-57
2023/09/06 10:52:58;;;;;;;4.25;2.70;;;;;;;24.84;50.49;101195.20;1723109;83;21935;-56
2023/09/06 10:56:05;;;;;;;4.50;2.95;;;;;;;24.90;50.27;101208.21;1725996;82;21378;-54
2023/09/06 10:59:13;;;;;;;6.50;2.77;;;;;;;24.91;49.96;101190.32;1718675;83;21496;-54
2023/09/06 11:02:30;;;;;;;4.47;3.05;;;;;;;25.04;49.84;101188.05;1674983;83;21768;-53
2023/09/06 11:05:46;;;;;;;5.67;3.15;;;;;;;25.16;49.57;101182.39;1692202;82;21737;-53
2023/09/06 11:08:53;;;;;;;7.42;4.22;;;;;;;25.27;49.24;101184.83;1741162;80;21258;-54
2023/09/06 11:11:59;;;;;;;4.72;3.65;;;;;;;25.40;49.03;101180.34;1716883;83;21767;-55
2023/09/06 11:15:09;;;;;;;4.33;2.67;;;;;;;25.57;48.88;101171.38;1723889;82;21832;-54
2023/09/06 11:18:16;;;;;;;5.15;3.20;;;;;;;25.79;48.74;101175.09;1744780;81;21227;-55
2023/09/06 11:21:31;;;;;;;5.47;3.05;;;;;;;26.01;48.50;101167.08;1716123;82;21207;-56
2023/09/06 11:24:44;;;;;;;8.03;2.98;;;;;;;26.21;48.19;101170.16;1737811;80;21851;-55
2023/09/06 11:27:50;;;;;;;4.40;3.10;;;;;;;26.30;47.77;101171.98;1756374;80;21206;-55
2023/09/06 11:31:00;;;;;;;4.40;3.27;;;;;;;26.32;47.35;101160.77;1743980;82;21263;-55
2023/09/06 11:34:13;;;;;;;5.78;3.10;;;;;;;26.38;47.07;101161.70;1746614;80;21799;-55
2023/09/06 11:37:20;;;;;;;4.58;3.02;;;;;;;26.40;46.79;101158.91;1692962;82;21793;-55
2023/09/06 11:40:28;;;;;;;6.08;4.25;;;;;;;26.44;46.49;101162.91;1704142;84;21203;-55
2023/09/06 11:43:41;;;;;;;6.35;3.12;;;;;;;26.42;46.13;101154.44;1742007;81;21765;-54
2023/09/06 11:46:44;;;;;;;5.95;3.17;;;;;;;26.42;46.02;101148.82;1736328;81;21215;-53
2023/09/06 11:49:51;;;;;;;7.05;3.40;;;;;;;26.54;45.83;101155.17;1740027;80;21729;-54
2023/09/06 11:52:59;;;;;;;5.00;2.80;;;;;;;26.62;45.67;101150.50;1738524;82;21251;-52
2023/09/06 11:56:08;;;;;;;4.25;2.72;;;;;;;26.63;45.30;101151.33;1741492;82;21708;-53
2023/09/06 11:59:17;;;;;;;8.95;3.62;;;;;;;26.54;44.94;101150.96;1741739;82;21215;-52
2023/09/06 12:02:24;;;;;;;5.10;3.22;;;;;;;26.40;44.62;101142.64;1742382;81;21254;-53
2023/09/06 12:05:33;;;;;;;5.35;3.35;;;;;;;26.29;44.44;101140.81;1731021;83;21217;-55
2023/09/06 12:08:41;;;;;;;6.53;3.40;;;;;;;26.18;44.22;101148.23;1705686;83;21615;-52
2023/09/06 12:11:47;;;;;;;7.20;3.70;;;;;;;26.03;44.00;101145.22;1722956;83;21737;-53
2023/09/06 12:14:53;;;;;;;10.18;3.90;;;;;;;25.99;44.03;101136.14;1722415;83;21224;-52
2023/09/06 12:17:59;;;;;;;6.20;3.50;;;;;;;26.07;44.05;101139.91;1720816;82;21778;-53
2023/09/06 12:21:07;;;;;;;8.13;3.77;;;;;;;26.09;43.91;101133.50;1709774;83;21216;-53
2023/09/06 12:24:12;;;;;;;4.92;3.30;;;;;;;26.08;43.85;101134.62;1695388;83;21749;-54
2023/09/06 12:27:20;;;;;;;7.90;3.42;;;;;;;26.16;43.86;101129.38;1715808;83;21305;-53
2023/09/06 12:30:26;;;;;;;8.88;4.92;;;;;;;26.28;43.82;101136.28;1708479;83;21722;-51
2023/09/06 12:33:31;;;;;;;6.75;3.95;;;;;;;26.36;43.65;101120.39;1711113;83;21270;-53
2023/09/06 12:36:37;;;;;;;9.30;3.80;;;;;;;26.38;43.46;101134.48;1708184;83;21789;-56
2023/09/06 12:39:46;;;;;;;7.15;4.90;;;;;;;26.31;43.15;101128.20;1722810;83;21328;-57
2023/09/06 12:42:53;;;;;;;7.90;4.90;;;;;;;26.22;42.93;101131.17;1706524;83;21702;-57
2023/09/06 12:46:02;;;;;;;6.80;4.00;;;;;;;26.15;42.82;101126.84;1718022;83;21351;-55
2023/09/06 12:49:08;;;;;;;7.67;3.80;;;;;;;26.08;42.63;101129.00;1702531;83;21232;-56
2023/09/06 12:52:16;;;;;;;7.10;3.60;;;;;;;25.98;42.55;101134.42;1699466;83;21231;-55
2023/09/06 12:55:19;;;;;;;8.08;3.50;;;;;;;25.92;42.50;101122.84;1732012;82;21311;-57
2023/09/06 12:58:25;;;;;;;7.22;4.78;;;;;;;25.87;42.42;101125.02;1732781;81;21185;-57
2023/09/06 13:01:31;;;;;;;7.03;3.67;;;;;;;25.83;42.36;101124.39;1738158;80;21243;-57
2023/09/06 13:04:42;;;;;;;7.80;3.40;;;;;;;25.83;42.35;101118.78;1728236;80;21211;-60
2023/09/06 13:07:48;;;;;;;5.55;3.87;;;;;;;25.80;42.21;101119.30;1742405;81;21208;-61
2023/09/06 13:10:47;;;;;;;8.65;3.90;;;;;;;25.78;42.10;101114.50;1730198;82;21748;-59
2023/09/06 13:13:54;;;;;;;4.35;2.90;;;;;;;25.73;41.96;101117.22;1737729;82;21231;-60
2023/09/06 13:17:04;;;;;;;8.48;3.67;;;;;;;25.68;41.88;101109.58;1741133;80;21310;-65
2023/09/06 13:20:12;;;;;;;4.75;3.37;;;;;;;25.65;41.81;101107.84;1738921;80;21196;-62
2023/09/06 13:23:18;;;;;;;6.22;3.80;;;;;;;25.63;41.77;101108.09;1728622;80;21208;-60
2023/09/06 13:26:23;;;;;;;9.35;5.83;;;;;;;25.62;41.71;101105.00;1742500;80;21823;-60
2023/09/06 13:29:30;;;;;;;8.18;3.60;;;;;;;25.62;41.67;101104.14;1705082;83;21216;-61
2023/09/06 13:32:35;;;;;;;7.22;3.67;;;;;;;25.60;41.58;101099.34;1691842;83;22121;-55
2023/09/06 13:35:42;;;;;;;9.10;3.95;;;;;;;25.59;41.54;101098.52;1721501;82;21236;-55
2023/09/06 13:38:48;;;;;;;6.92;3.40;;;;;;;25.60;41.52;101097.39;1722195;83;21793;-56
2023/09/06 13:41:53;;;;;;;6.53;3.55;;;;;;;25.59;41.48;101090.09;1687841;83;21254;-54
2023/09/06 13:45:00;;;;;;;7.35;3.67;;;;;;;25.61;41.46;101091.23;1707739;84;21502;-54
2023/09/06 13:48:06;;;;;;;7.33;4.00;;;;;;;25.61;41.44;101075.81;1705389;82;21302;-54
2023/09/06 13:51:12;;;;;;;7.75;4.22;;;;;;;25.58;41.38;101079.96;1722678;82;21209;-55
2023/09/06 13:54:18;;;;;;;16.30;13.00;;;;;;;25.58;41.42;101080.50;1719804;82;21407;-56
2023/09/06 13:57:23;;;;;;;15.65;11.80;;;;;;;25.58;41.39;101078.56;1721195;83;21339;-56
2023/09/06 14:00:31;;;;;;;13.58;9.93;;;;;;;25.57;41.38;101069.86;1724480;81;21682;-55
2023/09/06 14:03:39;;;;;;;6.25;4.25;;;;;;;25.55;41.32;101074.02;1728162;82;22155;-54
2023/09/06 14:06:46;;;;;;;9.05;4.05;;;;;;;25.50;41.28;101074.78;1691637;84;22274;-58
2023/09/06 14:09:52;;;;;;;10.95;6.53;;;;;;;25.47;41.28;101074.44;1702959;84;21194;-56
2023/09/06 14:13:00;;;;;;;11.22;6.45;;;;;;;25.47;41.28;101074.44;1714733;83;21225;-56
2023/09/06 14:16:07;;;;;;;8.33;4.80;;;;;;;25.45;41.24;101071.08;1726550;83;21212;-55
2023/09/06 14:19:14;;;;;;;6.58;3.25;;;;;;;25.45;41.17;101075.28;1714439;83;21227;-55
2023/09/06 14:22:20;;;;;;;6.12;3.45;;;;;;;25.37;41.09;101073.73;1707337;83;21240;-54